sensor_id;sensor_type;location;lat;lon;timestamp;P1;durP1;ratioP1;P2;durP2;ratioP2
31618;SDS011;18230;51.502;7.108;2023-05-27T00:01:17;28.30;;;6.32;;
31618;SDS011;18230;51.502;7.108;2023-05-27T00:06:17;32.05;;;6.10;;
31618;SDS011;18230;51.502;7.108;2023-05-27T00:11:18;26.13;;;6.68;;
31618;SDS011;18230;51.502;7.108;2023-05-27T00:16:19;24.77;;;5.75;;
31618;SDS011;18230;51.502;7.108;2023-05-27T00:21:20;26.50;;;6.20;;
31618;SDS011;18230;51.502;7.108;2023-05-27T00:26:21;24.77;;;6.30;;
31618;SDS011;18230;51.502;7.108;2023-05-27T00:31:22;33.50;;;6.85;;
31618;SDS011;18230;51.502;7.108;2023-05-27T00:36:23;30.67;;;6.75;;
31618;SDS011;18230;51.502;7.108;2023-05-27T00:41:24;28.23;;;5.88;;
31618;SDS011;18230;51.502;7.108;2023-05-27T00:46:26;26.02;;;5.68;;
31618;SDS011;18230;51.502;7.108;2023-05-27T00:51:27;23.75;;;6.30;;
31618;SDS011;18230;51.502;7.108;2023-05-27T00:56:28;30.30;;;6.90;;
31618;SDS011;18230;51.502;7.108;2023-05-27T01:01:28;27.45;;;6.45;;
31618;SDS011;18230;51.502;7.108;2023-05-27T01:07:32;29.92;;;6.63;;
31618;SDS011;18230;51.502;7.108;2023-05-27T01:12:27;27.55;;;6.28;;
31618;SDS011;18230;51.502;7.108;2023-05-27T01:17:37;34.35;;;6.13;;
31618;SDS011;18230;51.502;7.108;2023-05-27T01:22:42;29.15;;;6.88;;
31618;SDS011;18230;51.502;7.108;2023-05-27T01:27:43;35.45;;;6.47;;
31618;SDS011;18230;51.502;7.108;2023-05-27T01:32:53;25.77;;;5.70;;
31618;SDS011;18230;51.502;7.108;2023-05-27T01:37:59;25.73;;;6.25;;
31618;SDS011;18230;51.502;7.108;2023-05-27T01:43:05;26.50;;;6.38;;
31618;SDS011;18230;51.502;7.108;2023-05-27T01:48:06;30.40;;;6.63;;
31618;SDS011;18230;51.502;7.108;2023-05-27T01:53:09;26.45;;;6.88;;
31618;SDS011;18230;51.502;7.108;2023-05-27T01:58:11;31.50;;;6.40;;
31618;SDS011;18230;51.502;7.108;2023-05-27T02:03:12;22.88;;;6.03;;
31618;SDS011;18230;51.502;7.108;2023-05-27T02:08:13;28.33;;;7.25;;
31618;SDS011;18230;51.502;7.108;2023-05-27T02:13:13;24.67;;;6.15;;
31618;SDS011;18230;51.502;7.108;2023-05-27T02:18:14;22.73;;;5.57;;
31618;SDS011;18230;51.502;7.108;2023-05-27T02:23:15;36.38;;;7.22;;
31618;SDS011;18230;51.502;7.108;2023-05-27T02:28:16;25.65;;;6.43;;
31618;SDS011;18230;51.502;7.108;2023-05-27T02:33:17;23.30;;;6.22;;
31618;SDS011;18230;51.502;7.108;2023-05-27T02:38:18;26.13;;;5.68;;
31618;SDS011;18230;51.502;7.108;2023-05-27T02:43:18;26.42;;;6.85;;
31618;SDS011;18230;51.502;7.108;2023-05-27T02:48:19;31.92;;;7.05;;
31618;SDS011;18230;51.502;7.108;2023-05-27T02:53:20;28.52;;;7.05;;
31618;SDS011;18230;51.502;7.108;2023-05-27T02:58:21;22.00;;;6.97;;
31618;SDS011;18230;51.502;7.108;2023-05-27T03:03:21;24.77;;;7.35;;
31618;SDS011;18230;51.502;7.108;2023-05-27T03:08:23;24.45;;;7.22;;
31618;SDS011;18230;51.502;7.108;2023-05-27T03:13:24;23.35;;;6.95;;
31618;SDS011;18230;51.502;7.108;2023-05-27T03:18:25;32.63;;;7.95;;
31618;SDS011;18230;51.502;7.108;2023-05-27T03:23:26;27.23;;;7.28;;
31618;SDS011;18230;51.502;7.108;2023-05-27T03:28:27;26.63;;;7.00;;
31618;SDS011;18230;51.502;7.108;2023-05-27T03:33:27;30.67;;;7.22;;
31618;SDS011;18230;51.502;7.108;2023-05-27T03:38:28;26.67;;;7.10;;
31618;SDS011;18230;51.502;7.108;2023-05-27T03:43:29;30.02;;;7.25;;
31618;SDS011;18230;51.502;7.108;2023-05-27T03:48:30;28.85;;;7.45;;
31618;SDS011;18230;51.502;7.108;2023-05-27T03:53:30;34.30;;;7.65;;
31618;SDS011;18230;51.502;7.108;2023-05-27T03:58:31;26.30;;;7.53;;
31618;SDS011;18230;51.502;7.108;2023-05-27T04:03:32;29.08;;;7.70;;
31618;SDS011;18230;51.502;7.108;2023-05-27T04:08:33;26.63;;;7.72;;
31618;SDS011;18230;51.502;7.108;2023-05-27T04:13:35;29.13;;;8.77;;
31618;SDS011;18230;51.502;7.108;2023-05-27T04:18:36;34.97;;;8.20;;
31618;SDS011;18230;51.502;7.108;2023-05-27T04:23:37;30.92;;;8.55;;
31618;SDS011;18230;51.502;7.108;2023-05-27T04:28:37;32.47;;;8.18;;
31618;SDS011;18230;51.502;7.108;2023-05-27T04:33:39;26.85;;;8.13;;
31618;SDS011;18230;51.502;7.108;2023-05-27T04:38:39;38.20;;;8.20;;
31618;SDS011;18230;51.502;7.108;2023-05-27T04:43:40;29.55;;;8.00;;
31618;SDS011;18230;51.502;7.108;2023-05-27T04:48:42;29.45;;;8.98;;
31618;SDS011;18230;51.502;7.108;2023-05-27T04:53:45;27.23;;;8.00;;
31618;SDS011;18230;51.502;7.108;2023-05-27T04:58:47;36.22;;;9.02;;
31618;SDS011;18230;51.502;7.108;2023-05-27T05:03:48;26.85;;;8.32;;
31618;SDS011;18230;51.502;7.108;2023-05-27T05:09:02;34.00;;;8.45;;
31618;SDS011;18230;51.502;7.108;2023-05-27T05:14:04;28.58;;;8.27;;
31618;SDS011;18230;51.502;7.108;2023-05-27T05:19:05;22.65;;;7.55;;
31618;SDS011;18230;51.502;7.108;2023-05-27T05:24:06;29.05;;;8.32;;
31618;SDS011;18230;51.502;7.108;2023-05-27T05:29:07;25.88;;;8.30;;
31618;SDS011;18230;51.502;7.108;2023-05-27T05:34:08;29.50;;;8.45;;
31618;SDS011;18230;51.502;7.108;2023-05-27T05:39:08;22.88;;;8.18;;
31618;SDS011;18230;51.502;7.108;2023-05-27T05:44:09;31.50;;;8.60;;
31618;SDS011;18230;51.502;7.108;2023-05-27T05:49:10;27.08;;;7.82;;
31618;SDS011;18230;51.502;7.108;2023-05-27T05:54:11;21.75;;;7.28;;
31618;SDS011;18230;51.502;7.108;2023-05-27T05:59:12;31.60;;;7.38;;
31618;SDS011;18230;51.502;7.108;2023-05-27T06:04:13;27.33;;;8.25;;
31618;SDS011;18230;51.502;7.108;2023-05-27T06:09:13;25.85;;;7.10;;
31618;SDS011;18230;51.502;7.108;2023-05-27T06:14:14;31.25;;;7.68;;
31618;SDS011;18230;51.502;7.108;2023-05-27T06:19:15;28.15;;;8.40;;
31618;SDS011;18230;51.502;7.108;2023-05-27T06:24:16;27.08;;;8.63;;
31618;SDS011;18230;51.502;7.108;2023-05-27T06:29:19;32.33;;;9.90;;
31618;SDS011;18230;51.502;7.108;2023-05-27T06:34:20;28.33;;;8.70;;
31618;SDS011;18230;51.502;7.108;2023-05-27T06:39:20;32.05;;;9.55;;
31618;SDS011;18230;51.502;7.108;2023-05-27T06:44:22;22.92;;;8.32;;
31618;SDS011;18230;51.502;7.108;2023-05-27T06:49:23;26.38;;;8.00;;
31618;SDS011;18230;51.502;7.108;2023-05-27T06:54:24;33.08;;;8.63;;
31618;SDS011;18230;51.502;7.108;2023-05-27T06:59:25;32.85;;;9.82;;
31618;SDS011;18230;51.502;7.108;2023-05-27T07:04:25;31.08;;;9.82;;
31618;SDS011;18230;51.502;7.108;2023-05-27T07:09:26;31.55;;;7.70;;
31618;SDS011;18230;51.502;7.108;2023-05-27T07:14:27;31.33;;;8.82;;
31618;SDS011;18230;51.502;7.108;2023-05-27T07:19:30;31.83;;;10.73;;
31618;SDS011;18230;51.502;7.108;2023-05-27T07:24:31;33.40;;;9.30;;
31618;SDS011;18230;51.502;7.108;2023-05-27T07:29:32;32.05;;;9.32;;
31618;SDS011;18230;51.502;7.108;2023-05-27T07:34:33;29.98;;;8.70;;
31618;SDS011;18230;51.502;7.108;2023-05-27T07:39:34;30.67;;;9.15;;
31618;SDS011;18230;51.502;7.108;2023-05-27T07:44:35;25.05;;;8.48;;
31618;SDS011;18230;51.502;7.108;2023-05-27T07:49:35;31.50;;;8.20;;
31618;SDS011;18230;51.502;7.108;2023-05-27T07:54:36;23.15;;;7.78;;
31618;SDS011;18230;51.502;7.108;2023-05-27T07:59:37;29.63;;;8.32;;
31618;SDS011;18230;51.502;7.108;2023-05-27T08:04:37;21.98;;;7.60;;
31618;SDS011;18230;51.502;7.108;2023-05-27T08:09:38;26.40;;;7.25;;
31618;SDS011;18230;51.502;7.108;2023-05-27T08:14:39;32.22;;;7.47;;
31618;SDS011;18230;51.502;7.108;2023-05-27T08:19:43;36.40;;;7.43;;
31618;SDS011;18230;51.502;7.108;2023-05-27T08:24:44;26.83;;;8.00;;
31618;SDS011;18230;51.502;7.108;2023-05-27T08:29:45;29.80;;;8.90;;
31618;SDS011;18230;51.502;7.108;2023-05-27T08:34:46;25.45;;;6.82;;
31618;SDS011;18230;51.502;7.108;2023-05-27T08:39:47;18.98;;;6.97;;
31618;SDS011;18230;51.502;7.108;2023-05-27T08:44:47;28.92;;;7.43;;
31618;SDS011;18230;51.502;7.108;2023-05-27T08:49:48;24.27;;;7.68;;
31618;SDS011;18230;51.502;7.108;2023-05-27T08:54:49;21.42;;;7.13;;
31618;SDS011;18230;51.502;7.108;2023-05-27T08:59:52;25.23;;;7.28;;
31618;SDS011;18230;51.502;7.108;2023-05-27T09:04:53;21.55;;;7.32;;
31618;SDS011;18230;51.502;7.108;2023-05-27T09:09:54;24.10;;;7.03;;
31618;SDS011;18230;51.502;7.108;2023-05-27T09:14:58;23.88;;;7.13;;
31618;SDS011;18230;51.502;7.108;2023-05-27T09:19:59;22.67;;;6.72;;
31618;SDS011;18230;51.502;7.108;2023-05-27T09:25:00;24.25;;;7.75;;
31618;SDS011;18230;51.502;7.108;2023-05-27T09:30:07;21.48;;;6.45;;
31618;SDS011;18230;51.502;7.108;2023-05-27T09:35:10;25.20;;;6.82;;
31618;SDS011;18230;51.502;7.108;2023-05-27T09:40:13;21.92;;;6.68;;
31618;SDS011;18230;51.502;7.108;2023-05-27T09:45:18;22.00;;;6.88;;
31618;SDS011;18230;51.502;7.108;2023-05-27T09:50:21;20.60;;;5.55;;
31618;SDS011;18230;51.502;7.108;2023-05-27T09:55:22;26.52;;;6.18;;
31618;SDS011;18230;51.502;7.108;2023-05-27T10:00:23;22.83;;;6.28;;
31618;SDS011;18230;51.502;7.108;2023-05-27T10:05:25;31.58;;;6.72;;
31618;SDS011;18230;51.502;7.108;2023-05-27T10:10:27;25.08;;;6.10;;
31618;SDS011;18230;51.502;7.108;2023-05-27T10:15:29;19.63;;;5.88;;
31618;SDS011;18230;51.502;7.108;2023-05-27T10:20:36;20.60;;;5.50;;
31618;SDS011;18230;51.502;7.108;2023-05-27T10:25:38;16.95;;;6.07;;
31618;SDS011;18230;51.502;7.108;2023-05-27T10:30:43;23.25;;;5.50;;
31618;SDS011;18230;51.502;7.108;2023-05-27T10:35:48;21.08;;;5.30;;
31618;SDS011;18230;51.502;7.108;2023-05-27T10:40:49;19.60;;;6.30;;
31618;SDS011;18230;51.502;7.108;2023-05-27T10:46:37;20.33;;;5.45;;
31618;SDS011;18230;51.502;7.108;2023-05-27T10:51:37;16.02;;;5.55;;
31618;SDS011;18230;51.502;7.108;2023-05-27T10:56:47;15.32;;;5.03;;
31618;SDS011;18230;51.502;7.108;2023-05-27T11:01:53;18.67;;;5.30;;
31618;SDS011;18230;51.502;7.108;2023-05-27T11:07:00;14.23;;;5.00;;
31618;SDS011;18230;51.502;7.108;2023-05-27T11:17:08;17.95;;;5.53;;
31618;SDS011;18230;51.502;7.108;2023-05-27T11:22:10;16.42;;;5.72;;
31618;SDS011;18230;51.502;7.108;2023-05-27T11:27:13;17.50;;;5.30;;
31618;SDS011;18230;51.502;7.108;2023-05-27T11:32:16;18.83;;;5.05;;
31618;SDS011;18230;51.502;7.108;2023-05-27T11:37:17;20.65;;;5.68;;
31618;SDS011;18230;51.502;7.108;2023-05-27T11:42:24;16.60;;;4.85;;
31618;SDS011;18230;51.502;7.108;2023-05-27T11:47:25;17.20;;;5.57;;
31618;SDS011;18230;51.502;7.108;2023-05-27T11:52:26;20.27;;;6.10;;
31618;SDS011;18230;51.502;7.108;2023-05-27T11:57:27;19.13;;;5.57;;
31618;SDS011;18230;51.502;7.108;2023-05-27T12:02:31;13.60;;;4.82;;
31618;SDS011;18230;51.502;7.108;2023-05-27T12:07:31;15.63;;;5.65;;
31618;SDS011;18230;51.502;7.108;2023-05-27T12:12:32;16.50;;;5.72;;
31618;SDS011;18230;51.502;7.108;2023-05-27T12:17:34;16.95;;;5.05;;
31618;SDS011;18230;51.502;7.108;2023-05-27T12:22:34;15.88;;;5.13;;
31618;SDS011;18230;51.502;7.108;2023-05-27T12:27:35;18.60;;;6.15;;
31618;SDS011;18230;51.502;7.108;2023-05-27T12:32:36;16.70;;;5.00;;
31618;SDS011;18230;51.502;7.108;2023-05-27T12:37:37;17.90;;;5.10;;
31618;SDS011;18230;51.502;7.108;2023-05-27T12:42:37;16.20;;;4.55;;
31618;SDS011;18230;51.502;7.108;2023-05-27T12:47:38;17.98;;;5.13;;
31618;SDS011;18230;51.502;7.108;2023-05-27T12:52:39;13.20;;;4.65;;
31618;SDS011;18230;51.502;7.108;2023-05-27T12:57:46;12.32;;;5.60;;
31618;SDS011;18230;51.502;7.108;2023-05-27T13:02:48;14.88;;;5.10;;
31618;SDS011;18230;51.502;7.108;2023-05-27T13:07:54;15.27;;;5.10;;
31618;SDS011;18230;51.502;7.108;2023-05-27T13:13:00;17.33;;;5.00;;
31618;SDS011;18230;51.502;7.108;2023-05-27T13:18:02;16.35;;;5.10;;
31618;SDS011;18230;51.502;7.108;2023-05-27T13:23:03;16.33;;;4.85;;
31618;SDS011;18230;51.502;7.108;2023-05-27T13:28:04;14.13;;;4.93;;
31618;SDS011;18230;51.502;7.108;2023-05-27T13:33:05;18.25;;;5.00;;
31618;SDS011;18230;51.502;7.108;2023-05-27T13:38:06;15.85;;;5.82;;
31618;SDS011;18230;51.502;7.108;2023-05-27T13:43:12;18.03;;;5.97;;
31618;SDS011;18230;51.502;7.108;2023-05-27T13:48:13;19.67;;;6.22;;
31618;SDS011;18230;51.502;7.108;2023-05-27T13:53:14;16.80;;;5.78;;
31618;SDS011;18230;51.502;7.108;2023-05-27T13:58:15;17.48;;;5.15;;
31618;SDS011;18230;51.502;7.108;2023-05-27T14:03:16;17.83;;;5.85;;
31618;SDS011;18230;51.502;7.108;2023-05-27T14:08:17;18.63;;;5.93;;
31618;SDS011;18230;51.502;7.108;2023-05-27T14:13:18;19.88;;;5.82;;
31618;SDS011;18230;51.502;7.108;2023-05-27T14:18:18;13.15;;;5.35;;
31618;SDS011;18230;51.502;7.108;2023-05-27T14:23:19;15.45;;;5.90;;
31618;SDS011;18230;51.502;7.108;2023-05-27T14:28:20;15.82;;;5.47;;
31618;SDS011;18230;51.502;7.108;2023-05-27T14:33:21;17.50;;;5.63;;
31618;SDS011;18230;51.502;7.108;2023-05-27T14:38:24;18.67;;;5.72;;
31618;SDS011;18230;51.502;7.108;2023-05-27T14:43:25;17.58;;;5.70;;
31618;SDS011;18230;51.502;7.108;2023-05-27T14:48:26;20.67;;;6.68;;
31618;SDS011;18230;51.502;7.108;2023-05-27T14:53:26;17.77;;;5.85;;
31618;SDS011;18230;51.502;7.108;2023-05-27T14:58:27;15.30;;;6.07;;
31618;SDS011;18230;51.502;7.108;2023-05-27T15:03:28;16.80;;;6.28;;
31618;SDS011;18230;51.502;7.108;2023-05-27T15:08:30;12.55;;;5.85;;
31618;SDS011;18230;51.502;7.108;2023-05-27T15:13:31;18.40;;;6.03;;
31618;SDS011;18230;51.502;7.108;2023-05-27T15:18:32;15.85;;;4.97;;
31618;SDS011;18230;51.502;7.108;2023-05-27T15:23:33;13.60;;;5.35;;
31618;SDS011;18230;51.502;7.108;2023-05-27T15:28:34;13.10;;;5.35;;
31618;SDS011;18230;51.502;7.108;2023-05-27T15:33:35;15.77;;;5.60;;
31618;SDS011;18230;51.502;7.108;2023-05-27T15:38:35;14.45;;;5.95;;
31618;SDS011;18230;51.502;7.108;2023-05-27T15:43:36;15.27;;;6.50;;
31618;SDS011;18230;51.502;7.108;2023-05-27T15:48:37;12.82;;;5.47;;
31618;SDS011;18230;51.502;7.108;2023-05-27T15:53:37;17.88;;;6.35;;
31618;SDS011;18230;51.502;7.108;2023-05-27T15:58:38;15.02;;;5.90;;
31618;SDS011;18230;51.502;7.108;2023-05-27T16:03:39;13.70;;;5.50;;
31618;SDS011;18230;51.502;7.108;2023-05-27T16:08:40;13.57;;;6.18;;
31618;SDS011;18230;51.502;7.108;2023-05-27T16:13:40;10.57;;;5.05;;
31618;SDS011;18230;51.502;7.108;2023-05-27T16:18:41;11.95;;;5.53;;
31618;SDS011;18230;51.502;7.108;2023-05-27T16:23:42;17.75;;;6.55;;
31618;SDS011;18230;51.502;7.108;2023-05-27T16:28:42;16.27;;;5.97;;
31618;SDS011;18230;51.502;7.108;2023-05-27T16:33:43;12.88;;;5.50;;
31618;SDS011;18230;51.502;7.108;2023-05-27T16:38:44;12.18;;;5.72;;
31618;SDS011;18230;51.502;7.108;2023-05-27T16:43:45;15.82;;;5.63;;
31618;SDS011;18230;51.502;7.108;2023-05-27T16:48:45;13.60;;;5.35;;
31618;SDS011;18230;51.502;7.108;2023-05-27T16:53:47;9.98;;;5.20;;
31618;SDS011;18230;51.502;7.108;2023-05-27T16:58:48;16.23;;;6.38;;
31618;SDS011;18230;51.502;7.108;2023-05-27T17:03:54;12.90;;;5.60;;
31618;SDS011;18230;51.502;7.108;2023-05-27T17:08:55;16.15;;;5.80;;
31618;SDS011;18230;51.502;7.108;2023-05-27T17:13:56;13.30;;;5.53;;
31618;SDS011;18230;51.502;7.108;2023-05-27T17:18:57;16.17;;;6.35;;
31618;SDS011;18230;51.502;7.108;2023-05-27T17:23:58;10.73;;;5.55;;
31618;SDS011;18230;51.502;7.108;2023-05-27T17:28:58;11.90;;;5.65;;
31618;SDS011;18230;51.502;7.108;2023-05-27T17:33:59;11.60;;;5.22;;
31618;SDS011;18230;51.502;7.108;2023-05-27T17:39:00;11.38;;;4.88;;
31618;SDS011;18230;51.502;7.108;2023-05-27T17:44:01;12.52;;;5.00;;
31618;SDS011;18230;51.502;7.108;2023-05-27T17:49:02;11.10;;;4.97;;
31618;SDS011;18230;51.502;7.108;2023-05-27T17:54:02;11.13;;;4.97;;
31618;SDS011;18230;51.502;7.108;2023-05-27T17:59:03;16.38;;;8.45;;
31618;SDS011;18230;51.502;7.108;2023-05-27T18:04:04;12.48;;;6.15;;
31618;SDS011;18230;51.502;7.108;2023-05-27T18:09:06;11.02;;;5.18;;
31618;SDS011;18230;51.502;7.108;2023-05-27T18:14:08;10.25;;;5.22;;
31618;SDS011;18230;51.502;7.108;2023-05-27T18:19:09;9.05;;;4.78;;
31618;SDS011;18230;51.502;7.108;2023-05-27T18:24:09;18.15;;;8.32;;
31618;SDS011;18230;51.502;7.108;2023-05-27T18:29:12;9.80;;;5.43;;
31618;SDS011;18230;51.502;7.108;2023-05-27T18:34:14;8.88;;;5.13;;
31618;SDS011;18230;51.502;7.108;2023-05-27T18:39:15;11.25;;;7.07;;
31618;SDS011;18230;51.502;7.108;2023-05-27T18:44:16;16.55;;;7.30;;
31618;SDS011;18230;51.502;7.108;2023-05-27T18:49:16;13.93;;;7.32;;
31618;SDS011;18230;51.502;7.108;2023-05-27T18:54:22;14.53;;;5.43;;
31618;SDS011;18230;51.502;7.108;2023-05-27T18:59:23;10.98;;;4.70;;
31618;SDS011;18230;51.502;7.108;2023-05-27T19:04:24;11.05;;;4.65;;
31618;SDS011;18230;51.502;7.108;2023-05-27T19:09:25;12.60;;;5.97;;
31618;SDS011;18230;51.502;7.108;2023-05-27T19:14:25;14.82;;;6.13;;
31618;SDS011;18230;51.502;7.108;2023-05-27T19:19:26;13.77;;;6.20;;
31618;SDS011;18230;51.502;7.108;2023-05-27T19:24:27;12.25;;;5.55;;
31618;SDS011;18230;51.502;7.108;2023-05-27T19:29:27;14.05;;;5.32;;
31618;SDS011;18230;51.502;7.108;2023-05-27T19:34:28;11.43;;;5.90;;
31618;SDS011;18230;51.502;7.108;2023-05-27T19:39:29;15.88;;;5.50;;
31618;SDS011;18230;51.502;7.108;2023-05-27T19:44:30;11.90;;;4.75;;
31618;SDS011;18230;51.502;7.108;2023-05-27T19:49:31;10.30;;;4.85;;
31618;SDS011;18230;51.502;7.108;2023-05-27T19:54:31;14.48;;;5.22;;
31618;SDS011;18230;51.502;7.108;2023-05-27T19:59:33;10.50;;;4.47;;
31618;SDS011;18230;51.502;7.108;2023-05-27T20:04:34;10.65;;;4.85;;
31618;SDS011;18230;51.502;7.108;2023-05-27T20:09:35;11.32;;;4.80;;
31618;SDS011;18230;51.502;7.108;2023-05-27T20:14:36;11.20;;;4.93;;
31618;SDS011;18230;51.502;7.108;2023-05-27T20:19:36;15.05;;;6.50;;
31618;SDS011;18230;51.502;7.108;2023-05-27T20:24:37;10.70;;;4.80;;
31618;SDS011;18230;51.502;7.108;2023-05-27T20:29:38;9.10;;;4.95;;
31618;SDS011;18230;51.502;7.108;2023-05-27T20:34:39;8.93;;;4.47;;
31618;SDS011;18230;51.502;7.108;2023-05-27T20:39:41;14.73;;;5.30;;
31618;SDS011;18230;51.502;7.108;2023-05-27T20:44:42;14.32;;;5.45;;
31618;SDS011;18230;51.502;7.108;2023-05-27T20:49:42;12.93;;;5.53;;
31618;SDS011;18230;51.502;7.108;2023-05-27T20:54:43;13.27;;;4.43;;
31618;SDS011;18230;51.502;7.108;2023-05-27T20:59:44;15.45;;;6.10;;
31618;SDS011;18230;51.502;7.108;2023-05-27T21:04:45;16.95;;;5.90;;
31618;SDS011;18230;51.502;7.108;2023-05-27T21:09:46;14.75;;;5.22;;
31618;SDS011;18230;51.502;7.108;2023-05-27T21:14:46;12.77;;;4.55;;
31618;SDS011;18230;51.502;7.108;2023-05-27T21:19:47;16.23;;;5.63;;
31618;SDS011;18230;51.502;7.108;2023-05-27T21:24:48;14.10;;;5.20;;
31618;SDS011;18230;51.502;7.108;2023-05-27T21:29:49;13.02;;;5.78;;
31618;SDS011;18230;51.502;7.108;2023-05-27T21:34:51;16.23;;;6.28;;
31618;SDS011;18230;51.502;7.108;2023-05-27T21:39:53;14.38;;;6.03;;
31618;SDS011;18230;51.502;7.108;2023-05-27T21:44:54;17.88;;;5.90;;
31618;SDS011;18230;51.502;7.108;2023-05-27T21:49:54;15.93;;;5.90;;
31618;SDS011;18230;51.502;7.108;2023-05-27T21:54:55;16.10;;;5.88;;
31618;SDS011;18230;51.502;7.108;2023-05-27T21:59:56;14.75;;;6.22;;
31618;SDS011;18230;51.502;7.108;2023-05-27T22:04:57;14.88;;;6.22;;
31618;SDS011;18230;51.502;7.108;2023-05-27T22:09:58;19.08;;;5.97;;
31618;SDS011;18230;51.502;7.108;2023-05-27T22:14:59;12.02;;;5.20;;
31618;SDS011;18230;51.502;7.108;2023-05-27T22:20:00;13.07;;;5.60;;
31618;SDS011;18230;51.502;7.108;2023-05-27T22:25:00;14.77;;;5.97;;
31618;SDS011;18230;51.502;7.108;2023-05-27T22:30:01;15.65;;;5.68;;
31618;SDS011;18230;51.502;7.108;2023-05-27T22:35:05;15.52;;;5.72;;
31618;SDS011;18230;51.502;7.108;2023-05-27T22:40:07;13.50;;;5.30;;
31618;SDS011;18230;51.502;7.108;2023-05-27T22:45:08;16.88;;;6.38;;
31618;SDS011;18230;51.502;7.108;2023-05-27T22:50:10;25.20;;;12.35;;
31618;SDS011;18230;51.502;7.108;2023-05-27T22:55:10;13.85;;;6.05;;
31618;SDS011;18230;51.502;7.108;2023-05-27T23:00:11;20.17;;;8.23;;
31618;SDS011;18230;51.502;7.108;2023-05-27T23:05:13;21.00;;;8.85;;
31618;SDS011;18230;51.502;7.108;2023-05-27T23:10:14;12.38;;;5.70;;
31618;SDS011;18230;51.502;7.108;2023-05-27T23:15:15;20.95;;;8.60;;
31618;SDS011;18230;51.502;7.108;2023-05-27T23:20:17;15.13;;;6.22;;
31618;SDS011;18230;51.502;7.108;2023-05-27T23:25:18;14.85;;;6.32;;
31618;SDS011;18230;51.502;7.108;2023-05-27T23:30:18;15.77;;;5.82;;
31618;SDS011;18230;51.502;7.108;2023-05-27T23:35:23;15.30;;;6.78;;
31618;SDS011;18230;51.502;7.108;2023-05-27T23:40:23;13.43;;;5.55;;
31618;SDS011;18230;51.502;7.108;2023-05-27T23:45:24;13.10;;;6.43;;
31618;SDS011;18230;51.502;7.108;2023-05-27T23:50:25;14.00;;;6.55;;
31618;SDS011;18230;51.502;7.108;2023-05-27T23:55:26;14.73;;;6.60;;
